Little Valley, Nevada Weather observations

Data are for 10 minute period ending at time listed.
 Day   Time    Ave.   Ave.  Ave.  Vector   Max.   Total    Solar   
  of    of     Air    Rel.  Wind   Wind    Wind  Precip.   Rad.    
Year   Day     Temp.  Hum.  Speed  Dir.    Gust                    
2014   (PST)    F      %     mph   deg.    mph     in.     W/m2    
------------------------------------------------------------------- 
 239    4:00   33.0    90    0.0    96      0.0   17.39       0  
 239    5:00   32.0    92    0.0    96      0.0   17.39       0  
 239    6:00   32.0    94    0.0    96      0.0   17.39       2  
 239    7:00   40.0    77    0.0    96      0.0   17.39      82  
 239    8:00   57.0    55    0.0   123      1.0   17.39     296  
 239    9:00   73.0    26    1.0    71      5.0   17.39     500  
 239   10:00   72.0    24    5.0    60     10.0   17.39     687  
 239   11:00   74.0    22    4.0   126     10.0   17.39     834  
 239   12:00   76.0    21    3.0   150     10.0   17.39     923  
 239   13:00   76.0    21    4.0   159     16.0   17.39     947  
 239   14:00   77.0    20    4.0    99     17.0   17.39     902  
 239   15:00   79.0    19    5.0    31     10.0   17.39     798  
 239   16:00   78.0    19    5.0    51     12.0   17.39     639  
 239   17:00   79.0    19    4.0    63     13.0   17.39     444  
 239   18:00   65.0    41    0.0   210      6.0   17.39     151  
 239   19:00   66.0    46    3.0   232     10.0   17.39      13  
 239   20:00   67.0    46    4.0   244     13.0   17.39       1  
 239   21:00   65.0    48    2.0   212      8.0   17.39       0  
 239   22:00   57.0    59    3.0   170      7.0   17.39       0  
 239   23:00   51.0    74    0.0   217      4.0   17.39       0  
 240    0:00   47.0    79    0.0   155      1.0   17.39       0  
 240    1:00   45.0    81    0.0   240      3.0   17.39       0  
 240    2:00   43.0    84    0.0   159      3.0   17.39       0  
 240    3:00   41.0    90    0.0   252      2.0   17.39       0  

Return to Little Valley, Nevada graphs page.


Western Regional Climate Center,wrcc@dri.edu